Time;durP1;ratioP1;P1;durP2;ratioP2;P2;SDS_P1;SDS_P2;PMS_P1;PMS_P2;Temp;Humidity;BMP_temperature;BMP_pressure;BME280_temperature;BME280_humidity;BME280_pressure;Samples;Min_cycle;Max_cycle;Signal;HPM_P1;HPM_P2
2023/03/18 00:02:21;;;;;;;;;;;;;;;0.49;66.29;102759.72;5098022;28;19912;-67
2023/03/18 00:04:46;;;;;;;;;;;;;;;0.50;66.56;102756.19;5116125;28;19927;-68
2023/03/18 00:07:12;;;;;;;;;;;;;;;0.47;66.13;102745.81;5116308;28;19912;-68
2023/03/18 00:09:37;;;;;;;;;;;;;;;0.43;66.24;102742.41;5116175;28;19912;-67
2023/03/18 00:12:03;;;;;;;;;;;;;;;0.43;66.23;102738.94;5116023;28;19943;-67
2023/03/18 00:14:28;;;;;;;;;;;;;;;0.44;66.55;102745.91;5116351;28;19935;-68
2023/03/18 00:16:54;;;;;;;;;;;;;;;0.45;66.46;102742.38;5115895;28;20322;-67
2023/03/18 00:19:20;;;;;;;;;;;;;;;0.45;66.31;102739.75;5115840;28;20347;-67
2023/03/18 00:21:45;;;;;;;;;;;;;;;0.49;65.97;102734.34;5115920;28;19919;-67
2023/03/18 00:24:11;;;;;;;;;;;;;;;0.55;65.88;102728.03;5115713;28;19918;-67
2023/03/18 00:26:36;;;;;;;;;;;;;;;0.57;65.75;102726.22;5115700;28;19923;-67
2023/03/18 00:29:02;;;;;;;;;;;;;;;0.61;65.39;102731.34;5115681;28;19915;-67
2023/03/18 00:31:29;;;;;;;;;;;;;;;0.66;65.42;102725.94;5115423;28;19916;-67
2023/03/18 00:33:54;;;;;;;;;;;;;;;0.68;65.25;102728.50;5115394;28;19972;-66
2023/03/18 00:36:24;;;;;;;;;;;;;;;0.69;65.15;102725.84;5115684;28;19956;-66
2023/03/18 00:38:50;;;;;;;;;;;;;;;0.71;64.89;102721.41;5115567;28;20275;-67
2023/03/18 00:41:15;;;;;;;;;;;;;;;0.72;64.55;102720.50;5115489;28;20370;-66
2023/03/18 00:43:48;;;;;;;;;;;;;;;0.66;63.89;102723.31;5115221;28;19911;-67
2023/03/18 00:46:18;;;;;;;;;;;;;;;0.66;64.50;102725.09;5115433;28;20026;-67
2023/03/18 00:48:44;;;;;;;;;;;;;;;0.63;63.82;102720.81;5115248;28;20006;-66
2023/03/18 00:51:12;;;;;;;;;;;;;;;0.62;64.37;102729.59;5115458;28;20008;-66
2023/03/18 00:53:41;;;;;;;;;;;;;;;0.64;64.69;102721.66;5115465;28;19916;-66
2023/03/18 00:56:07;;;;;;;;;;;;;;;0.67;64.72;102719.78;5115059;28;20286;-66
2023/03/18 00:58:32;;;;;;;;;;;;;;;0.71;64.36;102724.03;5115134;28;19916;-67
2023/03/18 01:00:58;;;;;;;;;;;;;;;0.74;64.31;102723.06;5115001;28;19911;-67
2023/03/18 01:03:25;;;;;;;;;;;;;;;0.75;64.33;102716.91;5115108;28;19919;-68
2023/03/18 01:05:52;;;;;;;;;;;;;;;0.73;65.36;102711.72;5113948;28;20386;-67
2023/03/18 01:08:18;;;;;;;;;;;;;;;0.71;64.27;102705.66;5115120;28;19912;-67
2023/03/18 01:10:43;;;;;;;;;;;;;;;0.71;64.51;102703.03;5114901;28;20360;-66
2023/03/18 01:13:08;;;;;;;;;;;;;;;0.73;63.97;102708.22;5114729;28;19912;-66
2023/03/18 01:15:34;;;;;;;;;;;;;;;0.76;64.04;102701.13;5114591;28;19912;-67
2023/03/18 01:18:00;;;;;;;;;;;;;;;0.79;63.63;102708.03;5114923;28;19956;-67
2023/03/18 01:20:25;;;;;;;;;;;;;;;0.77;62.93;102700.22;5114903;28;19912;-65
2023/03/18 01:22:51;;;;;;;;;;;;;;;0.80;62.99;102700.09;5114684;28;20303;-66
2023/03/18 01:25:16;;;;;;;;;;;;;;;0.79;63.28;102700.16;5114641;28;20006;-67
2023/03/18 01:27:42;;;;;;;;;;;;;;;0.79;63.39;102700.16;5114652;28;19915;-67
2023/03/18 01:30:08;;;;;;;;;;;;;;;0.77;63.17;102697.59;5096206;28;19918;-66
2023/03/18 01:32:33;;;;;;;;;;;;;;;0.77;63.05;102702.81;5114218;28;20007;-66
2023/03/18 01:34:59;;;;;;;;;;;;;;;0.81;62.26;102699.19;5117790;28;20396;-67
2023/03/18 01:37:24;;;;;;;;;;;;;;;0.79;62.62;102692.28;5127254;28;20386;-67
2023/03/18 01:39:50;;;;;;;;;;;;;;;0.77;61.76;102688.84;5117140;28;19918;-66
2023/03/18 01:42:17;;;;;;;;;;;;;;;0.74;61.71;102684.56;5096252;28;19919;-67
2023/03/18 01:44:42;;;;;;;;;;;;;;;0.78;62.29;102693.19;5114355;28;20381;-66
2023/03/18 01:47:09;;;;;;;;;;;;;;;0.76;61.68;102685.38;5114676;28;19912;-67
2023/03/18 01:49:46;;;;;;;;;;;;;;;0.74;61.86;102676.72;5114562;28;19923;-66
2023/03/18 01:52:15;;;;;;;;;;;;;;;0.75;62.52;102690.69;5114431;28;19972;-66
2023/03/18 01:54:42;;;;;;;;;;;;;;;0.76;62.31;102680.13;5099663;28;20394;-68
2023/03/18 01:57:07;;;;;;;;;;;;;;;0.78;62.42;102678.31;5115768;28;19912;-67
2023/03/18 01:59:37;;;;;;;;;;;;;;;0.82;62.44;102684.31;5095997;28;19912;-67
2023/03/18 02:02:08;;;;;;;;;;;;;;;0.80;61.61;102676.50;5114755;28;19922;-66
2023/03/18 02:04:41;;;;;;;;;;;;;;;0.83;61.69;102681.63;5114138;28;19915;-67
2023/03/18 02:07:12;;;;;;;;;;;;;;;0.85;62.09;102685.06;5095671;28;19919;-67
2023/03/18 02:09:37;;;;;;;;;;;;;;;0.83;61.35;102676.38;5113979;28;19934;-67
2023/03/18 02:12:03;;;;;;;;;;;;;;;0.84;61.59;102667.59;5113984;28;19911;-66
2023/03/18 02:14:28;;;;;;;;;;;;;;;0.80;61.91;102665.16;5095891;28;19912;-67
2023/03/18 02:17:00;;;;;;;;;;;;;;;0.79;61.22;102669.53;5113382;28;19912;-65
2023/03/18 02:19:43;;;;;;;;;;;;;;;0.78;62.12;102667.81;5113888;28;20003;-68
2023/03/18 02:22:21;;;;;;;;;;;;;;;0.79;61.75;102673.94;5117845;28;19912;-67
2023/03/18 02:25:05;;;;;;;;;;;;;;;0.81;62.04;102662.47;5095459;28;19998;-67
2023/03/18 02:27:34;;;;;;;;;;;;;;;0.79;61.21;102653.78;5095546;28;19911;-67
2023/03/18 02:30:05;;;;;;;;;;;;;;;0.79;61.46;102653.78;5113393;28;19911;-67
2023/03/18 02:32:33;;;;;;;;;;;;;;;0.81;61.56;102662.47;5113406;28;20358;-66
2023/03/18 02:35:00;;;;;;;;;;;;;;;0.83;61.42;102649.28;5094921;28;20252;-66
2023/03/18 02:37:25;;;;;;;;;;;;;;;0.85;61.21;102653.56;5113369;28;20387;-67
2023/03/18 02:39:51;;;;;;;;;;;;;;;0.86;60.68;102655.28;5113290;28;19938;-67
2023/03/18 02:42:29;;;;;;;;;;;;;;;0.85;61.14;102653.56;5113216;28;19921;-67
2023/03/18 02:44:55;;;;;;;;;;;;;;;0.85;60.95;102657.97;5112889;28;19959;-66
2023/03/18 02:47:21;;;;;;;;;;;;;;;0.81;60.08;102659.84;5113143;28;19918;-66
2023/03/18 02:49:47;;;;;;;;;;;;;;;0.82;60.73;102666.81;5113097;28;19911;-67
2023/03/18 02:52:12;;;;;;;;;;;;;;;0.83;60.59;102672.91;5077724;28;19916;-67
2023/03/18 02:54:37;;;;;;;;;;;;;;;0.77;60.14;102671.34;5095004;28;20367;-66
2023/03/18 02:57:03;;;;;;;;;;;;;;;0.71;60.48;102674.19;5112830;28;20420;-66
2023/03/18 02:59:28;;;;;;;;;;;;;;;0.67;60.27;102676.97;5112861;28;19912;-66
2023/03/18 03:01:54;;;;;;;;;;;;;;;0.66;60.75;102678.75;5112770;28;19912;-67
2023/03/18 03:04:21;;;;;;;;;;;;;;;0.65;60.93;102671.78;5112961;28;19911;-67
2023/03/18 03:06:46;;;;;;;;;;;;;;;0.64;60.65;102675.31;5112770;28;20306;-67
2023/03/18 03:09:12;;;;;;;;;;;;;;;0.67;60.53;102669.97;5112754;28;19916;-66
2023/03/18 03:11:38;;;;;;;;;;;;;;;0.71;60.80;102670.72;5112737;28;20010;-65
2023/03/18 03:14:04;;;;;;;;;;;;;;;0.74;60.78;102679.34;5113159;28;19919;-66
2023/03/18 03:16:30;;;;;;;;;;;;;;;0.76;60.87;102667.03;5094691;28;19919;-66
2023/03/18 03:18:56;;;;;;;;;;;;;;;0.79;59.40;102674.78;5112995;28;19923;-67
2023/03/18 03:21:22;;;;;;;;;;;;;;;0.83;60.58;102670.28;5112672;28;19912;-67
2023/03/18 03:23:47;;;;;;;;;;;;;;;0.84;59.71;102667.59;5112833;28;19981;-66
2023/03/18 03:26:13;;;;;;;;;;;;;;;0.87;59.34;102667.53;5112703;28;20431;-66
2023/03/18 03:28:39;;;;;;;;;;;;;;;0.91;59.97;102663.88;5114558;28;19919;-67
2023/03/18 03:31:05;;;;;;;;;;;;;;;0.93;59.00;102664.69;5098043;28;19916;-66
2023/03/18 03:33:32;;;;;;;;;;;;;;;0.96;59.19;102661.09;5117293;28;20270;-67
2023/03/18 03:35:58;;;;;;;;;;;;;;;0.96;59.11;102655.00;5116821;28;19979;-66
2023/03/18 03:38:23;;;;;;;;;;;;;;;1.00;59.03;102656.59;5116735;28;19912;-66
2023/03/18 03:40:49;;;;;;;;;;;;;;;1.00;59.06;102661.84;5098293;28;19915;-66
2023/03/18 03:43:14;;;;;;;;;;;;;;;1.03;59.42;102648.59;5116340;28;20235;-67
2023/03/18 03:45:40;;;;;;;;;;;;;;;1.03;58.98;102649.47;5116474;28;19911;-66
2023/03/18 03:48:07;;;;;;;;;;;;;;;1.03;58.53;102651.22;5098186;28;20363;-66
2023/03/18 03:50:32;;;;;;;;;;;;;;;1.02;58.65;102644.25;5116474;28;20009;-66
2023/03/18 03:52:57;;;;;;;;;;;;;;;1.00;58.92;102639.06;5116354;28;19974;-67
2023/03/18 03:55:23;;;;;;;;;;;;;;;1.00;58.61;102640.84;5116364;28;20021;-67
2023/03/18 03:57:48;;;;;;;;;;;;;;;1.00;58.48;102640.84;5116200;28;19912;-66
2023/03/18 04:00:15;;;;;;;;;;;;;;;1.03;58.88;102635.47;5116481;28;19998;-66
2023/03/18 04:02:42;;;;;;;;;;;;;;;1.06;58.83;102632.75;5116870;28;19918;-67
2023/03/18 04:05:08;;;;;;;;;;;;;;;1.09;59.44;102640.50;5116638;28;19912;-66
2023/03/18 04:07:33;;;;;;;;;;;;;;;1.09;58.58;102630.00;5097860;28;19919;-67
2023/03/18 04:09:59;;;;;;;;;;;;;;;1.12;59.29;102636.00;5116118;28;20255;-66
2023/03/18 04:12:24;;;;;;;;;;;;;;;1.14;59.54;102625.44;5115750;28;19912;-67
2023/03/18 04:14:50;;;;;;;;;;;;;;;1.14;59.83;102620.19;5116365;28;19987;-68
2023/03/18 04:17:15;;;;;;;;;;;;;;;1.16;59.55;102627.13;5115867;28;20340;-67
2023/03/18 04:19:41;;;;;;;;;;;;;;;1.19;59.61;102628.78;5097769;28;19912;-67
2023/03/18 04:22:06;;;;;;;;;;;;;;;1.18;59.26;102613.94;5115969;28;19959;-67
2023/03/18 04:24:32;;;;;;;;;;;;;;;1.17;58.95;102617.47;5115777;28;19919;-66
2023/03/18 04:26:57;;;;;;;;;;;;;;;1.14;59.21;102622.81;5097349;28;19912;-67
2023/03/18 04:29:22;;;;;;;;;;;;;;;1.09;58.57;102611.63;5115423;28;20328;-67
2023/03/18 04:31:48;;;;;;;;;;;;;;;1.07;58.82;102610.84;5115524;28;19916;-67
2023/03/18 04:34:13;;;;;;;;;;;;;;;1.03;59.35;102615.34;5115788;28;19916;-66
2023/03/18 04:36:38;;;;;;;;;;;;;;;1.02;58.89;102612.78;5115709;28;19916;-66
2023/03/18 04:39:03;;;;;;;;;;;;;;;1.06;59.33;102607.34;5115606;28;19912;-67
2023/03/18 04:41:29;;;;;;;;;;;;;;;1.11;58.59;102604.56;5115416;28;19912;-68
2023/03/18 04:43:54;;;;;;;;;;;;;;;1.14;57.75;102604.44;5115146;28;19922;-66
2023/03/18 04:46:20;;;;;;;;;;;;;;;1.16;58.16;102611.38;5097588;28;20432;-67
2023/03/18 04:48:45;;;;;;;;;;;;;;;1.21;58.29;102608.56;5115529;28;19965;-67
2023/03/18 04:51:11;;;;;;;;;;;;;;;1.18;56.97;102606.94;5115370;28;20236;-68
2023/03/18 04:53:37;;;;;;;;;;;;;;;1.22;57.10;102607.66;5115484;28;20319;-67
2023/03/18 04:56:03;;;;;;;;;;;;;;;1.21;56.79;102612.06;5115375;28;19993;-67
2023/03/18 04:58:28;;;;;;;;;;;;;;;1.26;56.93;102611.88;5114987;28;20022;-67
2023/03/18 05:00:54;;;;;;;;;;;;;;;1.31;55.99;102604.69;5115448;28;20006;-67
2023/03/18 05:03:19;;;;;;;;;;;;;;;1.41;56.20;102599.94;5096865;28;19911;-67
2023/03/18 05:05:44;;;;;;;;;;;;;;;1.50;55.22;102600.44;5114962;28;19918;-67
2023/03/18 05:08:10;;;;;;;;;;;;;;;1.61;55.19;102605.28;5096710;28;19942;-67
2023/03/18 05:10:35;;;;;;;;;;;;;;;1.72;55.48;102605.69;5115052;28;20018;-67
2023/03/18 05:13:01;;;;;;;;;;;;;;;1.77;54.35;102601.13;5114698;28;19912;-67
2023/03/18 05:15:26;;;;;;;;;;;;;;;1.88;55.06;102595.44;5114701;28;19912;-67
2023/03/18 05:17:51;;;;;;;;;;;;;;;1.94;54.47;102595.19;5114836;28;19915;-66
2023/03/18 05:20:17;;;;;;;;;;;;;;;1.99;54.71;102593.22;5114892;28;19942;-67
2023/03/18 05:22:42;;;;;;;;;;;;;;;2.07;54.62;102596.41;5115059;28;19915;-66
2023/03/18 05:25:10;;;;;;;;;;;;;;;2.10;54.18;102591.03;5115112;28;20449;-67
2023/03/18 05:27:35;;;;;;;;;;;;;;;2.06;53.64;102592.06;5114699;28;19912;-67
2023/03/18 05:30:01;;;;;;;;;;;;;;;2.08;53.88;102590.25;5115530;28;20385;-68
2023/03/18 05:32:26;;;;;;;;;;;;;;;2.11;53.12;102591.88;5114805;28;19916;-67
2023/03/18 05:34:51;;;;;;;;;;;;;;;2.14;53.25;102582.09;5115009;28;20397;-66
2023/03/18 05:37:17;;;;;;;;;;;;;;;2.11;53.04;102579.59;5096760;28;20006;-67
2023/03/18 05:39:42;;;;;;;;;;;;;;;2.14;52.59;102589.13;5115184;28;20006;-67
2023/03/18 05:42:08;;;;;;;;;;;;;;;2.12;53.40;102573.41;5115218;28;19962;-67
2023/03/18 05:44:33;;;;;;;;;;;;;;;2.17;54.13;102576.69;5096635;28;20359;-69
2023/03/18 05:46:59;;;;;;;;;;;;;;;2.23;53.91;102574.72;5114978;28;19965;-67
2023/03/18 05:49:26;;;;;;;;;;;;;;;2.25;52.87;102573.75;5096849;28;19922;-66
2023/03/18 05:51:51;;;;;;;;;;;;;;;2.25;53.59;102567.63;5114181;28;20279;-67
2023/03/18 05:54:17;;;;;;;;;;;;;;;2.31;53.15;102577.88;5114814;28;19911;-67
2023/03/18 05:56:44;;;;;;;;;;;;;;;2.41;53.95;102576.59;5117375;28;20002;-67
2023/03/18 05:59:10;;;;;;;;;;;;;;;2.52;53.54;102574.34;5114103;28;19912;-68
2023/03/18 06:01:36;;;;;;;;;;;;;;;2.57;52.47;102569.72;5113937;28;19912;-67
2023/03/18 06:04:01;;;;;;;;;;;;;;;2.65;52.53;102567.63;5113699;28;19911;-66
2023/03/18 06:06:27;;;;;;;;;;;;;;;2.71;52.81;102567.38;5095686;28;19918;-65
2023/03/18 06:08:55;;;;;;;;;;;;;;;2.71;51.98;102564.72;5113955;28;19923;-64
2023/03/18 06:11:20;;;;;;;;;;;;;;;2.64;51.89;102560.66;5111917;28;20009;-70
2023/03/18 06:13:46;;;;;;;;;;;;;;;2.66;52.73;102565.88;5113761;27;20358;-73
2023/03/18 06:16:11;;;;;;;;;;;;;;;2.63;52.63;102566.84;5114130;28;19912;-66
2023/03/18 06:18:37;;;;;;;;;;;;;;;2.68;52.43;102564.88;5114016;27;19911;-66
2023/03/18 06:21:03;;;;;;;;;;;;;;;2.75;51.76;102570.72;5113720;28;19958;-70
2023/03/18 06:23:29;;;;;;;;;;;;;;;2.86;53.19;102564.94;5114055;28;19966;-64
2023/03/18 06:25:54;;;;;;;;;;;;;;;2.96;52.05;102566.28;5095218;28;19923;-65
2023/03/18 06:28:20;;;;;;;;;;;;;;;2.98;51.75;102565.28;5124218;27;19919;-64
2023/03/18 06:30:46;;;;;;;;;;;;;;;3.06;51.93;102564.91;5134073;27;19918;-64
2023/03/18 06:33:14;;;;;;;;;;;;;;;3.09;51.62;102567.41;5115778;27;19927;-66
2023/03/18 06:35:40;;;;;;;;;;;;;;;3.13;50.93;102566.34;5107515;28;19923;-66
2023/03/18 06:38:05;;;;;;;;;;;;;;;3.26;51.74;102564.00;5095052;28;19912;-66
2023/03/18 06:40:30;;;;;;;;;;;;;;;3.32;51.58;102561.94;5113069;28;19957;-64
2023/03/18 06:42:56;;;;;;;;;;;;;;;3.35;50.40;102553.88;5114407;27;19958;-66
2023/03/18 06:45:21;;;;;;;;;;;;;;;3.20;50.48;102564.28;5113182;28;20363;-70
2023/03/18 06:47:48;;;;;;;;;;;;;;;3.30;51.00;102561.16;5077959;28;19911;-66
2023/03/18 06:50:14;;;;;;;;;;;;;;;3.34;50.63;102562.72;5112996;28;19911;-68
2023/03/18 06:52:39;;;;;;;;;;;;;;;3.41;50.37;102568.53;5112997;28;20262;-70
2023/03/18 06:55:08;;;;;;;;;;;;;;;3.45;50.36;102561.34;5128375;27;19925;-67
2023/03/18 06:57:34;;;;;;;;;;;;;;;3.47;51.12;102567.38;5133824;27;19923;-65
2023/03/18 06:59:59;;;;;;;;;;;;;;;3.53;51.37;102562.72;5133425;27;19918;-64
2023/03/18 07:02:28;;;;;;;;;;;;;;;3.52;50.73;102571.53;5132897;27;19915;-65
2023/03/18 07:04:54;;;;;;;;;;;;;;;3.45;50.59;102570.09;5114819;27;20377;-64
2023/03/18 07:07:21;;;;;;;;;;;;;;;3.50;50.93;102572.53;5133013;27;19911;-65
2023/03/18 07:09:46;;;;;;;;;;;;;;;3.55;49.94;102563.47;5133441;27;19911;-66
2023/03/18 07:12:12;;;;;;;;;;;;;;;3.62;50.00;102561.41;5133311;27;19956;-64
2023/03/18 07:14:38;;;;;;;;;;;;;;;3.68;48.97;102569.00;5115089;28;19941;-64
2023/03/18 07:17:03;;;;;;;;;;;;;;;3.71;49.39;102566.22;5133548;28;19915;-65
2023/03/18 07:19:31;;;;;;;;;;;;;;;3.72;50.07;102567.91;5132480;28;19956;-65
2023/03/18 07:21:56;;;;;;;;;;;;;;;3.76;49.92;102569.50;5133353;28;19919;-67
2023/03/18 07:24:22;;;;;;;;;;;;;;;3.79;48.95;102557.97;5114686;28;19924;-65
2023/03/18 07:26:49;;;;;;;;;;;;;;;3.86;48.47;102562.00;5133501;28;19911;-66
2023/03/18 07:29:14;;;;;;;;;;;;;;;3.92;48.94;102567.81;5114894;28;20064;-64
2023/03/18 07:31:40;;;;;;;;;;;;;;;3.95;48.96;102565.03;5133251;28;20398;-64
2023/03/18 07:34:05;;;;;;;;;;;;;;;3.96;49.22;102563.25;5133127;28;19980;-63
2023/03/18 07:36:31;;;;;;;;;;;;;;;4.06;48.92;102559.22;5133151;28;20274;-63
2023/03/18 07:38:59;;;;;;;;;;;;;;;4.09;48.77;102560.88;5133045;28;19926;-64
2023/03/18 07:41:27;;;;;;;;;;;;;;;4.12;48.88;102565.97;5133433;28;19919;-65
2023/03/18 07:43:53;;;;;;;;;;;;;;;4.16;48.29;102564.88;5133115;28;19916;-65
2023/03/18 07:46:19;;;;;;;;;;;;;;;4.32;48.53;102550.81;5133418;28;19912;-65
2023/03/18 07:48:45;;;;;;;;;;;;;;;4.44;48.42;102559.06;5132747;28;19912;-64
2023/03/18 07:51:11;;;;;;;;;;;;;;;4.61;48.03;102544.03;5132840;28;19918;-64
2023/03/18 07:53:37;;;;;;;;;;;;;;;4.60;46.69;102547.63;5114236;28;19912;-66
2023/03/18 07:56:02;;;;;;;;;;;;;;;4.46;47.23;102550.13;5133042;28;19912;-65
2023/03/18 07:58:28;;;;;;;;;;;;;;;4.53;47.64;102548.03;5133105;28;19962;-67
2023/03/18 08:00:53;;;;;;;;;;;;;;;4.67;47.48;102550.81;5133115;28;20288;-66
2023/03/18 08:03:19;;;;;;;;;;;;;;;4.68;47.54;102544.59;5132767;28;19918;-66
2023/03/18 08:05:44;;;;;;;;;;;;;;;4.70;46.93;102547.16;5134557;28;20353;-65
2023/03/18 08:08:10;;;;;;;;;;;;;;;4.77;47.22;102543.25;5133062;28;19912;-66
2023/03/18 08:10:35;;;;;;;;;;;;;;;4.83;45.95;102546.41;5133025;28;19911;-66
2023/03/18 08:13:01;;;;;;;;;;;;;;;4.62;46.21;102535.19;5114494;28;19972;-64
2023/03/18 08:15:27;;;;;;;;;;;;;;;4.55;46.76;102547.00;5135694;27;20037;-65
2023/03/18 08:17:52;;;;;;;;;;;;;;;4.42;47.04;102531.91;5136485;27;19992;-66
2023/03/18 08:20:18;;;;;;;;;;;;;;;4.31;47.47;102538.56;5136321;27;19911;-66
2023/03/18 08:22:44;;;;;;;;;;;;;;;4.35;47.99;102531.38;5117779;27;20415;-66
2023/03/18 08:25:10;;;;;;;;;;;;;;;4.42;46.04;102531.91;5136513;27;19912;-67
2023/03/18 08:27:35;;;;;;;;;;;;;;;4.47;46.55;102536.00;5136731;27;19912;-64
2023/03/18 08:30:01;;;;;;;;;;;;;;;4.69;46.71;102537.53;5136584;27;19956;-63
2023/03/18 08:32:26;;;;;;;;;;;;;;;4.91;46.82;102535.44;5118276;27;20358;-65
2023/03/18 08:34:52;;;;;;;;;;;;;;;5.01;45.77;102535.81;5136502;27;19968;-65
2023/03/18 08:37:18;;;;;;;;;;;;;;;5.02;45.50;102533.06;5136315;27;19922;-66
2023/03/18 08:39:43;;;;;;;;;;;;;;;4.96;44.97;102534.28;5136033;27;19923;-66
2023/03/18 08:42:09;;;;;;;;;;;;;;;4.95;45.53;102532.56;5136140;27;19912;-67
2023/03/18 08:44:34;;;;;;;;;;;;;;;4.80;45.56;102532.53;5136142;27;19911;-66
2023/03/18 08:47:00;;;;;;;;;;;;;;;4.80;45.81;102532.53;5135901;27;19919;-65
2023/03/18 08:49:25;;;;;;;;;;;;;;;4.88;45.76;102535.59;5135975;27;20040;-65
2023/03/18 08:51:51;;;;;;;;;;;;;;;4.80;44.17;102535.16;5136002;27;19958;-66
2023/03/18 08:54:16;;;;;;;;;;;;;;;4.79;44.44;102517.63;5135757;27;20388;-66
2023/03/18 08:56:42;;;;;;;;;;;;;;;4.82;44.32;102526.22;5135685;27;20345;-66
2023/03/18 08:59:07;;;;;;;;;;;;;;;4.72;44.28;102524.16;5135798;27;19911;-65
2023/03/18 09:01:33;;;;;;;;;;;;;;;4.63;45.11;102521.09;5135868;27;19919;-66
2023/03/18 09:03:58;;;;;;;;;;;;;;;4.67;44.81;102529.69;5135596;27;19918;-66
2023/03/18 09:06:24;;;;;;;;;;;;;;;4.77;45.33;102524.78;5135387;27;20427;-65
2023/03/18 09:08:49;;;;;;;;;;;;;;;4.84;43.53;102518.22;5135659;27;19956;-65
2023/03/18 09:11:15;;;;;;;;;;;;;;;4.97;45.15;102522.78;5135788;27;20366;-68
2023/03/18 09:13:40;;;;;;;;;;;;;;;4.99;44.57;102514.75;5135619;27;20373;-64
2023/03/18 09:16:07;;;;;;;;;;;;;;;5.13;44.64;102517.47;5135406;27;20389;-64
2023/03/18 09:18:34;;;;;;;;;;;;;;;5.31;44.50;102522.69;5116941;27;19911;-65
2023/03/18 09:20:59;;;;;;;;;;;;;;;5.27;42.74;102514.94;5135112;27;20327;-65
2023/03/18 09:23:26;;;;;;;;;;;;;;;5.24;42.78;102523.03;5134941;27;19964;-65
2023/03/18 09:25:53;;;;;;;;;;;;;;;5.21;42.68;102515.28;5134203;27;20282;-66
2023/03/18 09:28:19;;;;;;;;;;;;;;;5.32;44.17;102514.69;5135300;27;19911;-66
2023/03/18 09:30:44;;;;;;;;;;;;;;;5.45;43.45;102513.03;5116391;27;19919;-66
2023/03/18 09:33:10;;;;;;;;;;;;;;;5.35;41.84;102500.44;5133227;27;19923;-71
2023/03/18 09:35:36;;;;;;;;;;;;;;;5.20;42.13;102508.31;5124261;27;19961;-69
2023/03/18 09:38:02;;;;;;;;;;;;;;;5.28;41.66;102511.38;5114591;28;19915;-69
2023/03/18 09:40:32;;;;;;;;;;;;;;;5.32;41.99;102509.41;5114510;28;20029;-71
2023/03/18 09:43:01;;;;;;;;;;;;;;;5.46;41.25;102500.69;5114036;28;19911;-68
2023/03/18 09:45:33;;;;;;;;;;;;;;;5.58;41.46;102502.63;5114261;28;19985;-72
2023/03/18 09:48:17;;;;;;;;;;;;;;;5.65;40.92;102501.34;5114419;28;19935;-70
2023/03/18 09:50:46;;;;;;;;;;;;;;;5.52;40.48;102492.44;5114420;28;20018;-72
2023/03/18 09:53:15;;;;;;;;;;;;;;;5.55;40.44;102497.53;5114347;28;19911;-70
2023/03/18 09:55:52;;;;;;;;;;;;;;;5.52;40.10;102484.50;5114045;28;20339;-69
2023/03/18 09:58:18;;;;;;;;;;;;;;;5.55;40.47;102489.59;5113909;28;19933;-69
2023/03/18 10:00:44;;;;;;;;;;;;;;;5.62;40.81;102480.38;5113884;28;20306;-72
2023/03/18 10:03:13;;;;;;;;;;;;;;;5.67;40.01;102486.25;5113815;28;19916;-72
2023/03/18 10:05:50;;;;;;;;;;;;;;;5.60;40.17;102480.47;5113666;28;19918;-72
2023/03/18 10:08:36;;;;;;;;;;;;;;;5.60;41.37;102476.97;5113805;28;19964;-70
2023/03/18 10:11:07;;;;;;;;;;;;;;;5.60;39.72;102479.63;5054080;28;19966;-69
2023/03/18 10:13:35;;;;;;;;;;;;;;;5.62;39.24;102480.38;5113629;28;19972;-71
2023/03/18 10:16:02;;;;;;;;;;;;;;;5.43;39.62;102472.63;5113453;28;19918;-68
2023/03/18 10:18:32;;;;;;;;;;;;;;;5.50;40.08;102459.94;5095626;28;19912;-71
2023/03/18 10:21:10;;;;;;;;;;;;;;;5.45;39.30;102452.25;5113519;28;19916;-71
2023/03/18 10:23:35;;;;;;;;;;;;;;;5.52;40.64;102460.72;5078069;28;20017;-71
2023/03/18 10:26:04;;;;;;;;;;;;;;;5.57;40.03;102456.84;5113877;28;19994;-72
2023/03/18 10:28:33;;;;;;;;;;;;;;;5.61;40.61;102460.19;5114075;28;20007;-74
2023/03/18 10:31:03;;;;;;;;;;;;;;;5.69;40.45;102450.00;5096058;28;20015;-72
2023/03/18 10:33:40;;;;;;;;;;;;;;;5.83;39.64;102452.69;5096041;28;20022;-72
2023/03/18 10:36:08;;;;;;;;;;;;;;;6.04;39.91;102447.09;5095426;28;19912;-72
2023/03/18 10:38:40;;;;;;;;;;;;;;;6.17;40.00;102437.47;5113372;28;20002;-73
2023/03/18 10:41:14;;;;;;;;;;;;;;;6.19;38.94;102438.22;5095231;28;19912;-70
2023/03/18 10:43:40;;;;;;;;;;;;;;;6.15;39.92;102434.06;5133507;27;20269;-68
2023/03/18 10:46:07;;;;;;;;;;;;;;;6.07;39.74;102433.66;5133784;27;19911;-70
2023/03/18 10:48:34;;;;;;;;;;;;;;;6.06;40.83;102426.69;5115958;27;19926;-70
2023/03/18 10:51:03;;;;;;;;;;;;;;;6.10;40.35;102429.06;5134010;27;20334;-70
2023/03/18 10:53:28;;;;;;;;;;;;;;;6.02;39.41;102427.81;5132295;27;19933;-72
2023/03/18 10:55:57;;;;;;;;;;;;;;;5.98;40.19;102435.09;5115584;27;20405;-72
2023/03/18 10:58:23;;;;;;;;;;;;;;;6.05;41.34;102417.03;5115258;27;20397;-72
2023/03/18 11:00:50;;;;;;;;;;;;;;;6.09;40.02;102405.34;5115267;27;20029;-70
2023/03/18 11:03:23;;;;;;;;;;;;;;;6.12;40.70;102410.47;5133419;27;20620;-71
2023/03/18 11:05:49;;;;;;;;;;;;;;;6.26;40.47;102418.38;5134301;27;20014;-72
2023/03/18 11:08:33;;;;;;;;;;;;;;;6.30;40.76;102401.38;5115487;27;19919;-69
2023/03/18 11:11:21;;;;;;;;;;;;;;;6.28;41.13;102405.91;5133566;27;19919;-71
2023/03/18 11:13:54;;;;;;;;;;;;;;;6.36;41.24;102402.78;5121995;27;19918;-73
2023/03/18 11:16:27;;;;;;;;;;;;;;;6.38;40.41;102390.34;5115058;28;19962;-70
2023/03/18 11:19:01;;;;;;;;;;;;;;;6.25;41.10;102394.66;5115133;28;19957;-71
2023/03/18 11:21:28;;;;;;;;;;;;;;;6.22;40.91;102382.47;5114841;28;19911;-72
2023/03/18 11:24:23;;;;;;;;;;;;;;;6.17;41.45;102385.41;5114864;28;19916;-71
2023/03/18 11:26:53;;;;;;;;;;;;;;;6.05;40.99;102372.94;5115853;28;19911;-71
2023/03/18 11:29:22;;;;;;;;;;;;;;;5.97;41.32;102369.06;5133411;28;19911;-70
2023/03/18 11:31:53;;;;;;;;;;;;;;;5.98;42.38;102370.75;5133029;28;19915;-72
2023/03/18 11:34:21;;;;;;;;;;;;;;;6.07;42.40;102359.59;5132895;28;19915;-72
2023/03/18 11:36:54;;;;;;;;;;;;;;;6.23;42.06;102360.38;5133299;28;19911;-69
2023/03/18 11:39:22;;;;;;;;;;;;;;;6.31;42.59;102355.44;5133551;28;19922;-69
2023/03/18 11:41:48;;;;;;;;;;;;;;;6.25;41.89;102353.19;5134051;28;19998;-70
2023/03/18 11:44:18;;;;;;;;;;;;;;;6.24;42.58;102335.63;5141791;28;20366;-71
2023/03/18 11:46:46;;;;;;;;;;;;;;;6.07;42.75;102343.75;5142536;28;19918;-72
2023/03/18 11:49:13;;;;;;;;;;;;;;;6.02;42.76;102349.31;5143057;27;19911;-69
2023/03/18 11:52:01;;;;;;;;;;;;;;;6.06;42.58;102344.69;5144126;27;20297;-71
2023/03/18 11:54:42;;;;;;;;;;;;;;;6.06;42.17;102336.75;5139483;27;20300;-71
2023/03/18 11:57:22;;;;;;;;;;;;;;;6.05;42.36;102332.41;5137003;27;20047;-72
2023/03/18 12:00:04;;;;;;;;;;;;;;;5.94;42.29;102342.81;5137285;27;19938;-75
2023/03/18 12:02:39;;;;;;;;;;;;;;;5.91;43.42;102333.28;5118676;27;19911;-71
2023/03/18 12:05:17;;;;;;;;;;;;;;;5.93;43.05;102346.41;5118611;27;19918;-71
2023/03/18 12:07:55;;;;;;;;;;;;;;;6.02;43.44;102340.53;5136664;27;19920;-71
2023/03/18 12:10:34;;;;;;;;;;;;;;;5.94;43.38;102330.44;5136715;27;19912;-71
2023/03/18 12:13:00;;;;;;;;;;;;;;;5.94;42.36;102321.66;5118635;27;19958;-72
2023/03/18 12:15:39;;;;;;;;;;;;;;;5.90;42.79;102321.00;5125481;27;19943;-71
2023/03/18 12:18:27;;;;;;;;;;;;;;;6.03;43.48;102316.63;5136476;27;19963;-72
2023/03/18 12:20:54;;;;;;;;;;;;;;;6.10;43.32;102306.53;5118447;27;19992;-73
2023/03/18 12:23:38;;;;;;;;;;;;;;;6.11;43.01;102313.53;5136492;27;20371;-69
2023/03/18 12:26:10;;;;;;;;;;;;;;;6.22;42.30;102305.75;5136469;27;19922;-71
2023/03/18 12:28:40;;;;;;;;;;;;;;;6.29;42.12;102304.41;5136050;27;19954;-71
2023/03/18 12:31:26;;;;;;;;;;;;;;;6.36;42.57;102304.88;5117897;27;19915;-71
2023/03/18 12:33:53;;;;;;;;;;;;;;;6.37;42.11;102294.22;5136441;27;19920;-71
2023/03/18 12:36:27;;;;;;;;;;;;;;;6.29;42.59;102288.53;5136254;27;19912;-77
2023/03/18 12:38:53;;;;;;;;;;;;;;;6.28;42.23;102297.44;5136208;27;19911;-74
2023/03/18 12:41:34;;;;;;;;;;;;;;;6.28;42.59;102294.78;5135816;27;19922;-69
2023/03/18 12:44:18;;;;;;;;;;;;;;;6.42;42.83;102288.63;5135999;27;19911;-70
2023/03/18 12:46:47;;;;;;;;;;;;;;;6.53;42.46;102300.22;5135879;27;19923;-67
2023/03/18 12:49:21;;;;;;;;;;;;;;;6.59;41.59;102292.81;5135899;27;19915;-69
2023/03/18 12:51:58;;;;;;;;;;;;;;;6.50;42.11;102284.53;5135666;27;19912;-72